Wetterdaten: Woche 09.04.12 - 15.04.12 (KW15)
Datum Zeit Temperatur Luftfeuchte Luftdruck Niederschlag Windrichtung Sonnenschein Solar Wind
09.04.2012 00:00 -0,2 C 89 % 1015,5 hPa 0,0 l/m SW 0,00 h 0 W/m 8,5 km/h (2 Bft)
09.04.2012 01:00 -0,4 C 88 % 1015,1 hPa 0,0 l/m SW 0,00 h 0 W/m 10,6 km/h (2 Bft)
09.04.2012 02:00 -0,8 C 87 % 1014,8 hPa 0,0 l/m SW 0,00 h 0 W/m 9,7 km/h (2 Bft)
09.04.2012 03:00 -1,1 C 87 % 1014,3 hPa 0,0 l/m SW 0,00 h 0 W/m 9,1 km/h (2 Bft)
09.04.2012 04:00 -1,1 C 87 % 1013,9 hPa 0,0 l/m SW 0,00 h 0 W/m 8,4 km/h (2 Bft)
09.04.2012 05:00 -1,4 C 89 % 1013,3 hPa 0,0 l/m SW 0,00 h 0 W/m 6,9 km/h (2 Bft)
09.04.2012 06:00 -1,1 C 88 % 1012,7 hPa 0,0 l/m SW 0,00 h 5 W/m 12,0 km/h (2 Bft)
09.04.2012 07:00 -1,2 C 89 % 1012,8 hPa 0,0 l/m S-SW 0,00 h 30 W/m 9,3 km/h (2 Bft)
09.04.2012 08:00 -0,6 C 90 % 1012,5 hPa 0,0 l/m S-SW 0,00 h 83 W/m 12,8 km/h (3 Bft)
09.04.2012 09:00 1,4 C 85 % 1012,2 hPa 0,0 l/m S-SW 0,25 h 192 W/m 13,0 km/h (3 Bft)
09.04.2012 10:00 3,1 C 79 % 1012,0 hPa 0,0 l/m SW 0,08 h 223 W/m 22,4 km/h (4 Bft)
09.04.2012 11:00 3,3 C 86 % 1011,8 hPa 0,0 l/m W-SW 0,00 h 238 W/m 23,2 km/h (4 Bft)
09.04.2012 12:00 4,4 C 85 % 1011,3 hPa 0,0 l/m SW 0,00 h 238 W/m 24,1 km/h (4 Bft)
09.04.2012 13:00 4,8 C 88 % 1010,7 hPa 0,2 l/m SW 0,00 h 297 W/m 22,9 km/h (4 Bft)
09.04.2012 14:00 5,5 C 85 % 1010,2 hPa 0,2 l/m W-SW 0,00 h 210 W/m 23,7 km/h (4 Bft)
09.04.2012 15:00 6,1 C 83 % 1009,5 hPa 0,2 l/m W-SW 0,00 h 137 W/m 18,1 km/h (3 Bft)
09.04.2012 16:00 6,5 C 81 % 1008,9 hPa 0,0 l/m SW 0,00 h 172 W/m 17,7 km/h (3 Bft)
09.04.2012 17:00 6,8 C 79 % 1008,3 hPa 0,2 l/m SW 0,00 h 158 W/m 16,8 km/h (3 Bft)
09.04.2012 18:00 6,9 C 77 % 1007,7 hPa 0,0 l/m SW 0,00 h 73 W/m 14,9 km/h (3 Bft)
09.04.2012 19:00 6,4 C 77 % 1007,2 hPa 0,0 l/m SW 0,00 h 17 W/m 9,7 km/h (2 Bft)
09.04.2012 20:00 5,9 C 77 % 1006,8 hPa 0,0 l/m SW 0,00 h 0 W/m 8,6 km/h (2 Bft)
09.04.2012 21:00 5,2 C 81 % 1006,8 hPa 0,0 l/m SW 0,00 h 0 W/m 3,7 km/h (1 Bft)
09.04.2012 22:00 5,0 C 84 % 1006,3 hPa 0,0 l/m SW 0,00 h 0 W/m 2,9 km/h (1 Bft)
09.04.2012 23:00 4,9 C 86 % 1005,8 hPa 0,0 l/m N 0,00 h 0 W/m 3,3 km/h (1 Bft)
10.04.2012 00:00 4,9 C 85 % 1005,3 hPa 0,0 l/m N 0,00 h 0 W/m 1,5 km/h (1 Bft)
10.04.2012 01:00 4,9 C 85 % 1004,7 hPa 0,0 l/m N 0,00 h 0 W/m 1,5 km/h (1 Bft)
10.04.2012 02:00 5,2 C 83 % 1004,3 hPa 0,0 l/m N 0,00 h 0 W/m 0,7 km/h (0 Bft)
10.04.2012 03:00 4,9 C 86 % 1003,9 hPa 0,0 l/m N 0,00 h 0 W/m 0,1 km/h (0 Bft)
10.04.2012 04:00 4,8 C 88 % 1003,4 hPa 0,0 l/m S-SW 0,00 h 0 W/m 2,0 km/h (1 Bft)
10.04.2012 05:00 5,1 C 88 % 1002,6 hPa 0,0 l/m S 0,00 h 0 W/m 2,8 km/h (1 Bft)
10.04.2012 06:00 5,1 C 87 % 1002,4 hPa 0,0 l/m N 0,00 h 9 W/m 0,8 km/h (0 Bft)
10.04.2012 07:00 5,0 C 87 % 1002,0 hPa 0,0 l/m N 0,00 h 30 W/m 2,0 km/h (1 Bft)
10.04.2012 08:00 7,1 C 81 % 1001,8 hPa 0,0 l/m S 0,58 h 197 W/m 8,2 km/h (2 Bft)
10.04.2012 09:00 10,3 C 69 % 1001,1 hPa 0,0 l/m SW 0,25 h 212 W/m 11,3 km/h (2 Bft)
10.04.2012 10:00 12,1 C 63 % 1000,8 hPa 0,0 l/m SW 0,17 h 290 W/m 13,7 km/h (3 Bft)
10.04.2012 11:00 13,5 C 60 % 1000,6 hPa 0,0 l/m S-SW 0,75 h 522 W/m 12,9 km/h (3 Bft)
10.04.2012 12:00 15,5 C 51 % 999,6 hPa 0,0 l/m SW 1,00 h 803 W/m 15,8 km/h (3 Bft)
10.04.2012 13:00 17,4 C 43 % 998,4 hPa 0,0 l/m SW 1,00 h 831 W/m 16,8 km/h (3 Bft)
10.04.2012 14:00 18,0 C 37 % 997,5 hPa 0,0 l/m SW 0,42 h 451 W/m 16,0 km/h (3 Bft)
10.04.2012 15:00 17,7 C 35 % 996,9 hPa 0,0 l/m W-SW 0,25 h 379 W/m 13,3 km/h (3 Bft)
10.04.2012 16:00 18,9 C 31 % 996,2 hPa 0,0 l/m W-NW 0,92 h 615 W/m 13,2 km/h (3 Bft)
10.04.2012 17:00 17,9 C 32 % 996,0 hPa 0,0 l/m W-NW 0,00 h 107 W/m 9,0 km/h (2 Bft)
10.04.2012 18:00 16,7 C 37 % 995,6 hPa 0,0 l/m W-NW 0,08 h 58 W/m 7,2 km/h (2 Bft)
10.04.2012 19:00 15,3 C 49 % 995,1 hPa 0,0 l/m N-NW 0,08 h 41 W/m 1,2 km/h (1 Bft)
10.04.2012 20:00 13,5 C 52 % 995,9 hPa 0,0 l/m NW 0,00 h 0 W/m 9,7 km/h (2 Bft)
10.04.2012 21:00 11,7 C 61 % 996,4 hPa 0,0 l/m NW 0,00 h 0 W/m 3,7 km/h (1 Bft)
10.04.2012 22:00 11,3 C 66 % 996,9 hPa 0,0 l/m W-NW 0,00 h 0 W/m 11,9 km/h (2 Bft)
10.04.2012 23:00 10,8 C 73 % 996,9 hPa 0,0 l/m W-NW 0,00 h 0 W/m 13,8 km/h (3 Bft)
11.04.2012 00:00 10,0 C 78 % 996,5 hPa 0,0 l/m W-NW 0,00 h 0 W/m 6,2 km/h (2 Bft)
11.04.2012 01:00 8,1 C 86 % 995,9 hPa 0,0 l/m N 0,00 h 0 W/m 0,9 km/h (0 Bft)
11.04.2012 02:00 7,3 C 89 % 995,1 hPa 0,0 l/m N 0,00 h 0 W/m 0,1 km/h (0 Bft)
11.04.2012 03:00 7,0 C 91 % 995,0 hPa 0,0 l/m N 0,00 h 0 W/m 0,5 km/h (0 Bft)
11.04.2012 04:00 6,8 C 91 % 994,9 hPa 0,0 l/m N 0,00 h 0 W/m 0,9 km/h (0 Bft)
11.04.2012 05:00 6,6 C 93 % 995,6 hPa 0,0 l/m W-NW 0,00 h 0 W/m 3,5 km/h (1 Bft)
11.04.2012 06:00 7,4 C 92 % 996,2 hPa 0,4 l/m W-SW 0,00 h 0 W/m 8,2 km/h (2 Bft)
11.04.2012 07:00 6,7 C 92 % 996,9 hPa 0,4 l/m W 0,00 h 11 W/m 10,9 km/h (2 Bft)
11.04.2012 08:00 5,7 C 93 % 997,9 hPa 2,0 l/m W 0,00 h 35 W/m 12,4 km/h (3 Bft)
11.04.2012 09:00 5,6 C 94 % 998,3 hPa 0,8 l/m W 0,00 h 60 W/m 10,3 km/h (2 Bft)
11.04.2012 10:00 5,6 C 92 % 999,0 hPa 0,6 l/m W-NW 0,00 h 76 W/m 11,7 km/h (2 Bft)
11.04.2012 11:00 5,7 C 92 % 999,3 hPa 0,8 l/m W-NW 0,00 h 115 W/m 8,3 km/h (2 Bft)
11.04.2012 12:00 5,4 C 92 % 999,7 hPa 0,8 l/m W-SW 0,00 h 99 W/m 11,0 km/h (2 Bft)
11.04.2012 13:00 4,9 C 93 % 1000,3 hPa 2,0 l/m W-SW 0,00 h 95 W/m 11,1 km/h (2 Bft)
11.04.2012 14:00 5,1 C 94 % 1000,7 hPa 1,0 l/m W-NW 0,00 h 99 W/m 9,0 km/h (2 Bft)
11.04.2012 15:00 5,4 C 92 % 1000,7 hPa 0,0 l/m W-NW 0,00 h 137 W/m 4,7 km/h (1 Bft)
11.04.2012 16:00 6,0 C 91 % 1000,9 hPa 0,0 l/m W-SW 0,00 h 100 W/m 9,7 km/h (2 Bft)
11.04.2012 17:00 5,8 C 92 % 1001,0 hPa 0,0 l/m SW 0,00 h 88 W/m 12,8 km/h (3 Bft)
11.04.2012 18:00 5,2 C 93 % 1001,2 hPa 0,0 l/m SW 0,00 h 50 W/m 14,8 km/h (3 Bft)
11.04.2012 19:00 4,7 C 93 % 1001,6 hPa 0,0 l/m SW 0,00 h 20 W/m 14,9 km/h (3 Bft)
11.04.2012 20:00 4,5 C 93 % 1002,3 hPa 0,0 l/m SW 0,00 h 5 W/m 14,0 km/h (3 Bft)
11.04.2012 21:00 4,2 C 94 % 1002,6 hPa 0,0 l/m S-SW 0,00 h 0 W/m 6,7 km/h (2 Bft)
11.04.2012 22:00 3,9 C 95 % 1002,7 hPa 0,0 l/m N 0,00 h 0 W/m 3,5 km/h (1 Bft)
11.04.2012 23:00 3,6 C 95 % 1002,7 hPa 0,0 l/m N 0,00 h 0 W/m 3,2 km/h (1 Bft)
12.04.2012 00:00 2,7 C 96 % 1002,8 hPa 0,0 l/m N 0,00 h 0 W/m 1,9 km/h (1 Bft)
12.04.2012 01:00 1,9 C 97 % 1002,9 hPa 0,0 l/m N 0,00 h 0 W/m 1,5 km/h (1 Bft)
12.04.2012 02:00 1,4 C 97 % 1003,0 hPa 0,0 l/m S-SW 0,00 h 0 W/m 1,7 km/h (1 Bft)
12.04.2012 03:00 1,0 C 97 % 1002,9 hPa 0,0 l/m N 0,00 h 0 W/m 0,4 km/h (0 Bft)
12.04.2012 04:00 0,6 C 97 % 1003,2 hPa 0,0 l/m N 0,00 h 0 W/m 0,1 km/h (0 Bft)
12.04.2012 05:00 0,5 C 97 % 1003,2 hPa 0,0 l/m N 0,00 h 0 W/m 0,1 km/h (0 Bft)
12.04.2012 06:00 0,7 C 97 % 1003,1 hPa 0,0 l/m N 0,00 h 8 W/m 0,0 km/h (0 Bft)
12.04.2012 07:00 0,9 C 98 % 1003,3 hPa 0,2 l/m N 0,00 h 36 W/m 1,9 km/h (1 Bft)
12.04.2012 08:00 2,9 C 98 % 1003,5 hPa 0,0 l/m S 0,00 h 83 W/m 6,7 km/h (2 Bft)
12.04.2012 09:00 4,6 C 95 % 1003,5 hPa 0,0 l/m SW 0,00 h 118 W/m 9,0 km/h (2 Bft)
12.04.2012 10:00 6,2 C 90 % 1003,3 hPa 0,0 l/m SW 0,33 h 356 W/m 14,8 km/h (3 Bft)
12.04.2012 11:00 8,0 C 80 % 1003,1 hPa 0,0 l/m W-SW 0,50 h 522 W/m 21,2 km/h (4 Bft)
12.04.2012 12:00 9,0 C 75 % 1002,8 hPa 0,0 l/m W 0,33 h 390 W/m 18,4 km/h (3 Bft)
12.04.2012 13:00 9,2 C 74 % 1002,4 hPa 0,0 l/m W-SW 0,33 h 432 W/m 16,4 km/h (3 Bft)
12.04.2012 14:00 9,9 C 68 % 1002,0 hPa 0,0 l/m W 0,17 h 319 W/m 18,1 km/h (3 Bft)
12.04.2012 15:00 9,3 C 73 % 1002,2 hPa 0,0 l/m W-NW 0,33 h 271 W/m 17,6 km/h (3 Bft)
12.04.2012 16:00 9,1 C 72 % 1002,0 hPa 0,0 l/m W 0,17 h 233 W/m 19,1 km/h (3 Bft)
12.04.2012 17:00 9,1 C 71 % 1001,9 hPa 0,0 l/m W-SW 0,00 h 129 W/m 15,0 km/h (3 Bft)
12.04.2012 18:00 8,4 C 74 % 1002,1 hPa 0,0 l/m W-SW 0,00 h 36 W/m 17,0 km/h (3 Bft)
12.04.2012 19:00 7,7 C 78 % 1002,2 hPa 0,0 l/m W-SW 0,00 h 10 W/m 17,7 km/h (3 Bft)
12.04.2012 20:00 7,1 C 82 % 1002,9 hPa 0,0 l/m SW 0,00 h 0 W/m 6,7 km/h (2 Bft)
12.04.2012 21:00 6,4 C 90 % 1003,6 hPa 1,2 l/m S-SW 0,00 h 0 W/m 2,5 km/h (1 Bft)
12.04.2012 22:00 5,6 C 94 % 1003,9 hPa 1,6 l/m SW 0,00 h 0 W/m 6,7 km/h (2 Bft)
12.04.2012 23:00 5,4 C 95 % 1003,9 hPa 0,2 l/m W-SW 0,00 h 0 W/m 6,0 km/h (2 Bft)
13.04.2012 00:00 5,0 C 96 % 1004,0 hPa 0,0 l/m SW 0,00 h 0 W/m 13,4 km/h (3 Bft)
13.04.2012 01:00 4,7 C 96 % 1004,0 hPa 0,0 l/m SW 0,00 h 0 W/m 10,2 km/h (2 Bft)
13.04.2012 02:00 4,6 C 97 % 1004,0 hPa 0,0 l/m SW 0,00 h 0 W/m 4,3 km/h (1 Bft)
13.04.2012 03:00 4,5 C 97 % 1003,8 hPa 0,0 l/m N 0,00 h 0 W/m 2,9 km/h (1 Bft)
13.04.2012 04:00 4,3 C 98 % 1003,4 hPa 0,0 l/m SW 0,00 h 0 W/m 2,9 km/h (1 Bft)
13.04.2012 05:00 4,2 C 98 % 1003,2 hPa 0,2 l/m N 0,00 h 0 W/m 1,7 km/h (1 Bft)
13.04.2012 06:00 3,8 C 98 % 1003,3 hPa 0,0 l/m N 0,00 h 6 W/m 0,8 km/h (0 Bft)
13.04.2012 07:00 3,9 C 98 % 1003,6 hPa 0,0 l/m SW 0,00 h 21 W/m 0,5 km/h (0 Bft)
13.04.2012 08:00 4,1 C 99 % 1003,9 hPa 0,0 l/m N 0,00 h 67 W/m 1,2 km/h (1 Bft)
13.04.2012 09:00 5,2 C 96 % 1003,9 hPa 0,0 l/m O 0,00 h 158 W/m 1,9 km/h (1 Bft)
13.04.2012 10:00 6,4 C 88 % 1003,9 hPa 0,0 l/m O 0,08 h 245 W/m 5,3 km/h (1 Bft)
13.04.2012 11:00 8,0 C 78 % 1003,4 hPa 0,0 l/m O-SO 0,75 h 610 W/m 9,9 km/h (2 Bft)
13.04.2012 12:00 9,7 C 69 % 1003,0 hPa 0,0 l/m O 0,83 h 650 W/m 13,7 km/h (3 Bft)
13.04.2012 13:00 10,0 C 63 % 1002,7 hPa 0,0 l/m O-SO 0,08 h 360 W/m 13,7 km/h (3 Bft)
13.04.2012 14:00 10,0 C 63 % 1002,5 hPa 0,0 l/m O 0,00 h 288 W/m 11,7 km/h (2 Bft)
13.04.2012 15:00 10,0 C 62 % 1002,1 hPa 0,0 l/m SO 0,00 h 232 W/m 14,0 km/h (3 Bft)
13.04.2012 16:00 10,0 C 64 % 1001,9 hPa 0,0 l/m O-SO 0,00 h 197 W/m 12,1 km/h (2 Bft)
13.04.2012 17:00 10,2 C 61 % 1001,8 hPa 0,0 l/m O 0,08 h 189 W/m 10,9 km/h (2 Bft)
13.04.2012 18:00 9,9 C 64 % 1001,7 hPa 0,0 l/m O-SO 0,00 h 88 W/m 10,3 km/h (2 Bft)
13.04.2012 19:00 8,9 C 74 % 1001,7 hPa 0,0 l/m O-SO 0,00 h 29 W/m 10,1 km/h (2 Bft)
13.04.2012 20:00 8,1 C 76 % 1001,8 hPa 0,0 l/m O 0,00 h 5 W/m 6,5 km/h (2 Bft)
13.04.2012 21:00 7,0 C 81 % 1002,0 hPa 0,0 l/m N 0,00 h 0 W/m 2,3 km/h (1 Bft)
13.04.2012 22:00 5,9 C 86 % 1001,8 hPa 0,0 l/m N 0,00 h 0 W/m 1,9 km/h (1 Bft)
13.04.2012 23:00 5,7 C 87 % 1001,5 hPa 0,0 l/m O 0,00 h 0 W/m 2,7 km/h (1 Bft)
14.04.2012 00:00 5,6 C 87 % 1001,3 hPa 0,0 l/m O-NO 0,00 h 0 W/m 3,5 km/h (1 Bft)
14.04.2012 01:00 4,6 C 91 % 1001,1 hPa 0,0 l/m NO 0,00 h 0 W/m 4,9 km/h (1 Bft)
14.04.2012 02:00 4,2 C 91 % 1000,5 hPa 0,0 l/m N-NO 0,00 h 0 W/m 3,9 km/h (1 Bft)
14.04.2012 03:00 3,4 C 93 % 1000,2 hPa 0,0 l/m N 0,00 h 0 W/m 1,5 km/h (1 Bft)
14.04.2012 04:00 3,2 C 93 % 1000,0 hPa 0,0 l/m N-NO 0,00 h 0 W/m 2,8 km/h (1 Bft)
14.04.2012 05:00 3,6 C 91 % 999,8 hPa 0,0 l/m N-NO 0,00 h 0 W/m 5,7 km/h (1 Bft)
14.04.2012 06:00 3,3 C 91 % 999,5 hPa 0,0 l/m N 0,00 h 6 W/m 5,6 km/h (1 Bft)
14.04.2012 07:00 3,6 C 90 % 999,4 hPa 0,0 l/m N 0,00 h 28 W/m 5,2 km/h (1 Bft)
14.04.2012 08:00 4,5 C 86 % 999,4 hPa 0,0 l/m NO 0,00 h 67 W/m 8,7 km/h (2 Bft)
14.04.2012 09:00 5,5 C 83 % 999,3 hPa 0,0 l/m NO 0,00 h 129 W/m 12,5 km/h (3 Bft)
14.04.2012 10:00 7,2 C 79 % 999,2 hPa 0,0 l/m NO 0,00 h 137 W/m 16,2 km/h (3 Bft)
14.04.2012 11:00 8,2 C 76 % 999,2 hPa 0,0 l/m O 0,00 h 187 W/m 19,8 km/h (4 Bft)
14.04.2012 12:00 8,5 C 74 % 999,0 hPa 0,0 l/m O 0,00 h 150 W/m 23,4 km/h (4 Bft)
14.04.2012 13:00 8,8 C 75 % 998,6 hPa 0,0 l/m O-NO 0,00 h 107 W/m 20,8 km/h (4 Bft)
14.04.2012 14:00 8,8 C 74 % 998,3 hPa 0,0 l/m NO 0,00 h 103 W/m 21,7 km/h (4 Bft)
14.04.2012 15:00 8,5 C 76 % 998,2 hPa 0,0 l/m O-NO 0,00 h 44 W/m 19,4 km/h (3 Bft)
14.04.2012 16:00 8,4 C 78 % 998,1 hPa 0,0 l/m O-NO 0,00 h 43 W/m 16,8 km/h (3 Bft)
14.04.2012 17:00 9,0 C 74 % 997,7 hPa 0,0 l/m O-NO 0,00 h 91 W/m 17,6 km/h (3 Bft)
14.04.2012 18:00 9,0 C 71 % 997,8 hPa 0,0 l/m O-NO 0,00 h 28 W/m 17,3 km/h (3 Bft)
14.04.2012 19:00 8,8 C 72 % 997,7 hPa 0,0 l/m O-NO 0,00 h 11 W/m 12,4 km/h (3 Bft)
14.04.2012 20:00 8,3 C 75 % 998,0 hPa 0,0 l/m N-NO 0,00 h 0 W/m 8,0 km/h (2 Bft)
14.04.2012 21:00 8,2 C 75 % 998,3 hPa 0,0 l/m NO 0,00 h 0 W/m 9,5 km/h (2 Bft)
14.04.2012 22:00 8,2 C 74 % 998,3 hPa 0,0 l/m NO 0,00 h 0 W/m 10,9 km/h (2 Bft)
14.04.2012 23:00 8,1 C 74 % 998,1 hPa 0,0 l/m NO 0,00 h 0 W/m 14,5 km/h (3 Bft)
15.04.2012 00:00 7,7 C 76 % 998,0 hPa 0,0 l/m NO 0,00 h 0 W/m 14,4 km/h (3 Bft)
15.04.2012 01:00 7,3 C 78 % 998,0 hPa 0,0 l/m NO 0,00 h 0 W/m 13,4 km/h (3 Bft)
15.04.2012 02:00 6,9 C 80 % 997,8 hPa 0,0 l/m NO 0,00 h 0 W/m 11,3 km/h (2 Bft)
15.04.2012 03:00 6,7 C 80 % 997,6 hPa 0,0 l/m N-NO 0,00 h 0 W/m 13,3 km/h (3 Bft)
15.04.2012 04:00 6,5 C 79 % 997,7 hPa 0,0 l/m O-NO 0,00 h 0 W/m 17,3 km/h (3 Bft)
15.04.2012 05:00 6,0 C 81 % 997,9 hPa 0,0 l/m N-NO 0,00 h 0 W/m 17,7 km/h (3 Bft)
15.04.2012 06:00 5,5 C 86 % 998,0 hPa 0,0 l/m NO 0,00 h 6 W/m 17,6 km/h (3 Bft)
15.04.2012 07:00 5,0 C 91 % 998,5 hPa 0,0 l/m N-NO 0,00 h 21 W/m 19,4 km/h (3 Bft)
15.04.2012 08:00 4,8 C 91 % 999,1 hPa 0,4 l/m O-NO 0,00 h 44 W/m 17,7 km/h (3 Bft)
15.04.2012 09:00 5,1 C 92 % 999,5 hPa 0,2 l/m NO 0,00 h 65 W/m 18,2 km/h (3 Bft)
15.04.2012 10:00 5,6 C 92 % 1000,0 hPa 0,0 l/m O-NO 0,00 h 102 W/m 19,3 km/h (3 Bft)
15.04.2012 11:00 5,9 C 92 % 1000,4 hPa 0,0 l/m O-NO 0,00 h 83 W/m 18,4 km/h (3 Bft)
15.04.2012 12:00 6,1 C 92 % 1000,5 hPa 0,2 l/m N-NO 0,00 h 71 W/m 18,4 km/h (3 Bft)
15.04.2012 13:00 6,3 C 93 % 1000,7 hPa 0,2 l/m N-NO 0,00 h 82 W/m 20,5 km/h (4 Bft)
15.04.2012 14:00 6,4 C 93 % 1000,9 hPa 0,0 l/m O-NO 0,00 h 86 W/m 22,0 km/h (4 Bft)
15.04.2012 15:00 6,6 C 92 % 1001,1 hPa 0,0 l/m NO 0,00 h 75 W/m 19,8 km/h (4 Bft)
15.04.2012 16:00 6,7 C 92 % 1001,4 hPa 0,2 l/m NO 0,00 h 78 W/m 20,4 km/h (4 Bft)
15.04.2012 17:00 6,7 C 94 % 1002,1 hPa 0,4 l/m NO 0,00 h 38 W/m 17,0 km/h (3 Bft)
15.04.2012 18:00 6,5 C 95 % 1002,7 hPa 1,0 l/m N-NO 0,00 h 21 W/m 17,7 km/h (3 Bft)
15.04.2012 19:00 6,2 C 95 % 1003,2 hPa 0,8 l/m N-NO 0,00 h 6 W/m 17,7 km/h (3 Bft)
15.04.2012 20:00 6,0 C 95 % 1004,1 hPa 0,8 l/m N-NO 0,00 h 0 W/m 16,5 km/h (3 Bft)
15.04.2012 21:00 5,9 C 95 % 1005,0 hPa 0,6 l/m N-NO 0,00 h 0 W/m 20,9 km/h (4 Bft)
15.04.2012 22:00 5,8 C 95 % 1005,8 hPa 0,8 l/m O-NO 0,00 h 0 W/m 22,2 km/h (4 Bft)
15.04.2012 23:00 5,5 C 95 % 1006,5 hPa 0,8 l/m N-NO 0,00 h 0 W/m 21,6 km/h (4 Bft)
Min-Datum _ 09.04.12 10.04.12 11.04.12 - - - - 09.04.12
_ Min-Zeit 03:40 16:50 04:00 - - - - 21:50
Minimum _ -1,5 C 26 % 994,6 hPa - - - - 0,0 km/h (0 Bft)
Max-Datum _ 10.04.12 13.04.12 09.04.12 11.04.12 - 09.04.12 12.04.12 09.04.12
_ Max-Zeit 16:20 07:55 00:00 08:00 - 09:10 13:20 14:35
Maximum _ 19,2 C 99 % 1015,6 hPa 2,0 l/m - 0,08 h 1025 W/m 33,8 km/h
SW (5 Bft)
Durchschnitt _ 6,4 C 83 % 1002,2 hPa #19,4 l/m SW #9:50 h 158 W/m 10,7 km/h (2 Bft)